sensor_id;sensor_type;location;lat;lon;timestamp;P1;durP1;ratioP1;P2;durP2;ratioP2
28828;SDS011;15966;51.540;11.870;2022-10-17T00:01:22;5.57;;;4.85;;
28828;SDS011;15966;51.540;11.870;2022-10-17T00:03:48;4.95;;;4.43;;
28828;SDS011;15966;51.540;11.870;2022-10-17T00:06:15;6.35;;;4.18;;
28828;SDS011;15966;51.540;11.870;2022-10-17T00:08:41;5.60;;;4.03;;
28828;SDS011;15966;51.540;11.870;2022-10-17T00:11:12;4.43;;;4.03;;
28828;SDS011;15966;51.540;11.870;2022-10-17T00:13:43;5.55;;;3.90;;
28828;SDS011;15966;51.540;11.870;2022-10-17T00:16:10;7.90;;;4.45;;
28828;SDS011;15966;51.540;11.870;2022-10-17T00:18:36;4.72;;;4.32;;
28828;SDS011;15966;51.540;11.870;2022-10-17T00:21:02;4.75;;;4.35;;
28828;SDS011;15966;51.540;11.870;2022-10-17T00:23:29;3.78;;;3.35;;
28828;SDS011;15966;51.540;11.870;2022-10-17T00:26:02;5.07;;;4.57;;
28828;SDS011;15966;51.540;11.870;2022-10-17T00:28:29;4.90;;;3.90;;
28828;SDS011;15966;51.540;11.870;2022-10-17T00:31:00;6.17;;;3.73;;
28828;SDS011;15966;51.540;11.870;2022-10-17T00:33:28;3.60;;;3.30;;
28828;SDS011;15966;51.540;11.870;2022-10-17T00:36:08;5.95;;;4.50;;
28828;SDS011;15966;51.540;11.870;2022-10-17T00:38:40;4.60;;;4.20;;
28828;SDS011;15966;51.540;11.870;2022-10-17T00:41:07;4.15;;;3.85;;
28828;SDS011;15966;51.540;11.870;2022-10-17T00:46:26;4.88;;;3.78;;
28828;SDS011;15966;51.540;11.870;2022-10-17T00:48:54;4.38;;;3.60;;
28828;SDS011;15966;51.540;11.870;2022-10-17T00:51:25;4.40;;;3.85;;
28828;SDS011;15966;51.540;11.870;2022-10-17T00:53:53;3.00;;;2.80;;
28828;SDS011;15966;51.540;11.870;2022-10-17T00:56:20;4.32;;;3.88;;
28828;SDS011;15966;51.540;11.870;2022-10-17T00:58:46;4.28;;;3.88;;
28828;SDS011;15966;51.540;11.870;2022-10-17T01:01:12;5.60;;;3.97;;
28828;SDS011;15966;51.540;11.870;2022-10-17T01:03:38;4.40;;;3.58;;
28828;SDS011;15966;51.540;11.870;2022-10-17T01:06:05;3.50;;;3.20;;
28828;SDS011;15966;51.540;11.870;2022-10-17T01:08:31;4.05;;;3.70;;
28828;SDS011;15966;51.540;11.870;2022-10-17T01:13:35;4.22;;;3.83;;
28828;SDS011;15966;51.540;11.870;2022-10-17T01:16:17;4.18;;;3.78;;
28828;SDS011;15966;51.540;11.870;2022-10-17T01:22:21;3.53;;;3.22;;
28828;SDS011;15966;51.540;11.870;2022-10-17T01:32:46;4.00;;;3.60;;
28828;SDS011;15966;51.540;11.870;2022-10-17T01:35:28;3.22;;;3.00;;
28828;SDS011;15966;51.540;11.870;2022-10-17T01:38:10;4.72;;;3.65;;
28828;SDS011;15966;51.540;11.870;2022-10-17T01:43:17;4.07;;;3.22;;
28828;SDS011;15966;51.540;11.870;2022-10-17T01:45:51;4.47;;;3.50;;
28828;SDS011;15966;51.540;11.870;2022-10-17T01:48:34;3.78;;;3.42;;
28828;SDS011;15966;51.540;11.870;2022-10-17T01:51:06;3.50;;;3.20;;
28828;SDS011;15966;51.540;11.870;2022-10-17T01:53:36;4.70;;;3.00;;
28828;SDS011;15966;51.540;11.870;2022-10-17T01:56:06;3.50;;;3.00;;
28828;SDS011;15966;51.540;11.870;2022-10-17T01:58:35;3.28;;;3.00;;
28828;SDS011;15966;51.540;11.870;2022-10-17T02:01:16;4.50;;;4.10;;
28828;SDS011;15966;51.540;11.870;2022-10-17T02:03:43;4.22;;;3.85;;
28828;SDS011;15966;51.540;11.870;2022-10-17T02:06:10;2.88;;;2.60;;
28828;SDS011;15966;51.540;11.870;2022-10-17T02:08:43;4.05;;;3.50;;
28828;SDS011;15966;51.540;11.870;2022-10-17T02:11:17;4.53;;;3.47;;
28828;SDS011;15966;51.540;11.870;2022-10-17T02:21:37;3.50;;;3.20;;
28828;SDS011;15966;51.540;11.870;2022-10-17T02:24:27;5.15;;;3.80;;
28828;SDS011;15966;51.540;11.870;2022-10-17T02:29:37;3.70;;;3.35;;
28828;SDS011;15966;51.540;11.870;2022-10-17T02:32:18;4.40;;;4.00;;
28828;SDS011;15966;51.540;11.870;2022-10-17T02:34:51;3.60;;;3.20;;
28828;SDS011;15966;51.540;11.870;2022-10-17T02:37:21;4.25;;;3.92;;
28828;SDS011;15966;51.540;11.870;2022-10-17T02:39:49;15.18;;;4.55;;
28828;SDS011;15966;51.540;11.870;2022-10-17T02:42:15;4.53;;;3.80;;
28828;SDS011;15966;51.540;11.870;2022-10-17T02:44:43;4.03;;;3.50;;
28828;SDS011;15966;51.540;11.870;2022-10-17T02:47:17;3.90;;;3.50;;
28828;SDS011;15966;51.540;11.870;2022-10-17T02:49:50;3.88;;;3.20;;
28828;SDS011;15966;51.540;11.870;2022-10-17T02:52:35;4.03;;;3.25;;
28828;SDS011;15966;51.540;11.870;2022-10-17T02:55:27;5.07;;;3.75;;
28828;SDS011;15966;51.540;11.870;2022-10-17T02:57:57;4.05;;;3.65;;
28828;SDS011;15966;51.540;11.870;2022-10-17T03:00:26;4.90;;;3.78;;
28828;SDS011;15966;51.540;11.870;2022-10-17T03:02:53;5.93;;;3.33;;
28828;SDS011;15966;51.540;11.870;2022-10-17T03:07:47;4.40;;;4.00;;
28828;SDS011;15966;51.540;11.870;2022-10-17T03:10:14;5.88;;;4.80;;
28828;SDS011;15966;51.540;11.870;2022-10-17T03:12:40;5.45;;;3.72;;
28828;SDS011;15966;51.540;11.870;2022-10-17T03:15:06;4.53;;;4.13;;
28828;SDS011;15966;51.540;11.870;2022-10-17T03:17:33;4.50;;;3.65;;
28828;SDS011;15966;51.540;11.870;2022-10-17T03:19:59;5.63;;;4.00;;
28828;SDS011;15966;51.540;11.870;2022-10-17T03:22:25;4.32;;;3.78;;
28828;SDS011;15966;51.540;11.870;2022-10-17T03:24:51;3.58;;;3.28;;
28828;SDS011;15966;51.540;11.870;2022-10-17T03:27:17;4.05;;;3.45;;
28828;SDS011;15966;51.540;11.870;2022-10-17T03:29:43;5.43;;;4.60;;
28828;SDS011;15966;51.540;11.870;2022-10-17T03:32:10;4.60;;;4.15;;
28828;SDS011;15966;51.540;11.870;2022-10-17T03:34:36;5.15;;;3.63;;
28828;SDS011;15966;51.540;11.870;2022-10-17T03:37:02;4.00;;;3.70;;
28828;SDS011;15966;51.540;11.870;2022-10-17T03:39:28;4.10;;;3.53;;
28828;SDS011;15966;51.540;11.870;2022-10-17T03:41:54;4.13;;;3.72;;
28828;SDS011;15966;51.540;11.870;2022-10-17T03:44:20;4.43;;;4.03;;
28828;SDS011;15966;51.540;11.870;2022-10-17T03:46:46;4.60;;;4.20;;
28828;SDS011;15966;51.540;11.870;2022-10-17T03:49:12;5.80;;;4.40;;
28828;SDS011;15966;51.540;11.870;2022-10-17T03:51:38;5.00;;;3.92;;
28828;SDS011;15966;51.540;11.870;2022-10-17T03:54:05;5.93;;;4.13;;
28828;SDS011;15966;51.540;11.870;2022-10-17T03:56:31;5.03;;;3.92;;
28828;SDS011;15966;51.540;11.870;2022-10-17T03:58:57;5.95;;;4.10;;
28828;SDS011;15966;51.540;11.870;2022-10-17T04:01:23;4.53;;;4.13;;
28828;SDS011;15966;51.540;11.870;2022-10-17T04:03:50;6.95;;;3.97;;
28828;SDS011;15966;51.540;11.870;2022-10-17T04:08:43;5.10;;;4.30;;
28828;SDS011;15966;51.540;11.870;2022-10-17T04:11:10;5.57;;;4.20;;
28828;SDS011;15966;51.540;11.870;2022-10-17T04:13:39;5.38;;;4.35;;
28828;SDS011;15966;51.540;11.870;2022-10-17T04:16:07;6.80;;;3.97;;
28828;SDS011;15966;51.540;11.870;2022-10-17T04:18:41;4.15;;;3.80;;
28828;SDS011;15966;51.540;11.870;2022-10-17T04:21:08;4.53;;;4.00;;
28828;SDS011;15966;51.540;11.870;2022-10-17T04:23:34;4.90;;;4.40;;
28828;SDS011;15966;51.540;11.870;2022-10-17T04:26:01;4.00;;;3.47;;
28828;SDS011;15966;51.540;11.870;2022-10-17T04:28:28;5.85;;;4.38;;
28828;SDS011;15966;51.540;11.870;2022-10-17T04:31:01;8.55;;;4.45;;
28828;SDS011;15966;51.540;11.870;2022-10-17T04:33:29;6.88;;;4.38;;
28828;SDS011;15966;51.540;11.870;2022-10-17T04:38:33;4.70;;;4.30;;
28828;SDS011;15966;51.540;11.870;2022-10-17T04:41:00;7.05;;;4.85;;
28828;SDS011;15966;51.540;11.870;2022-10-17T04:43:31;4.38;;;3.97;;
28828;SDS011;15966;51.540;11.870;2022-10-17T04:45:59;7.30;;;4.50;;
28828;SDS011;15966;51.540;11.870;2022-10-17T04:51:01;7.53;;;4.15;;
28828;SDS011;15966;51.540;11.870;2022-10-17T04:53:29;4.30;;;3.42;;
28828;SDS011;15966;51.540;11.870;2022-10-17T04:55:56;6.20;;;4.78;;
28828;SDS011;15966;51.540;11.870;2022-10-17T04:58:22;4.65;;;4.25;;
28828;SDS011;15966;51.540;11.870;2022-10-17T05:00:49;6.10;;;4.35;;
28828;SDS011;15966;51.540;11.870;2022-10-17T05:03:15;8.45;;;5.25;;
28828;SDS011;15966;51.540;11.870;2022-10-17T05:05:41;7.43;;;6.22;;
28828;SDS011;15966;51.540;11.870;2022-10-17T05:08:08;8.90;;;6.13;;
28828;SDS011;15966;51.540;11.870;2022-10-17T05:10:35;5.30;;;4.53;;
28828;SDS011;15966;51.540;11.870;2022-10-17T05:13:03;5.80;;;5.20;;
28828;SDS011;15966;51.540;11.870;2022-10-17T05:15:30;6.43;;;5.93;;
28828;SDS011;15966;51.540;11.870;2022-10-17T05:17:56;6.35;;;5.60;;
28828;SDS011;15966;51.540;11.870;2022-10-17T05:20:24;5.60;;;4.50;;
28828;SDS011;15966;51.540;11.870;2022-10-17T05:22:50;6.88;;;5.97;;
28828;SDS011;15966;51.540;11.870;2022-10-17T05:25:17;5.78;;;5.22;;
28828;SDS011;15966;51.540;11.870;2022-10-17T05:27:43;11.63;;;7.15;;
28828;SDS011;15966;51.540;11.870;2022-10-17T05:30:09;6.35;;;5.75;;
28828;SDS011;15966;51.540;11.870;2022-10-17T05:32:36;10.88;;;6.50;;
28828;SDS011;15966;51.540;11.870;2022-10-17T05:35:02;5.68;;;5.15;;
28828;SDS011;15966;51.540;11.870;2022-10-17T05:37:29;7.60;;;5.60;;
28828;SDS011;15966;51.540;11.870;2022-10-17T05:39:55;6.87;;;5.40;;
28828;SDS011;15966;51.540;11.870;2022-10-17T05:42:21;6.72;;;5.20;;
28828;SDS011;15966;51.540;11.870;2022-10-17T05:44:48;6.13;;;5.45;;
28828;SDS011;15966;51.540;11.870;2022-10-17T05:47:14;7.90;;;6.10;;
28828;SDS011;15966;51.540;11.870;2022-10-17T05:49:40;5.57;;;5.03;;
28828;SDS011;15966;51.540;11.870;2022-10-17T05:52:06;6.13;;;5.32;;
28828;SDS011;15966;51.540;11.870;2022-10-17T05:54:33;5.82;;;5.32;;
28828;SDS011;15966;51.540;11.870;2022-10-17T05:56:59;6.78;;;5.15;;
28828;SDS011;15966;51.540;11.870;2022-10-17T05:59:25;6.93;;;4.88;;
28828;SDS011;15966;51.540;11.870;2022-10-17T06:01:51;5.78;;;5.03;;
28828;SDS011;15966;51.540;11.870;2022-10-17T06:04:18;5.15;;;4.63;;
28828;SDS011;15966;51.540;11.870;2022-10-17T06:06:44;6.32;;;5.82;;
28828;SDS011;15966;51.540;11.870;2022-10-17T06:09:10;6.57;;;5.95;;
28828;SDS011;15966;51.540;11.870;2022-10-17T06:11:36;8.18;;;5.28;;
28828;SDS011;15966;51.540;11.870;2022-10-17T06:14:02;5.45;;;4.95;;
28828;SDS011;15966;51.540;11.870;2022-10-17T06:16:28;8.05;;;6.72;;
28828;SDS011;15966;51.540;11.870;2022-10-17T06:18:55;5.60;;;5.05;;
28828;SDS011;15966;51.540;11.870;2022-10-17T06:21:22;6.03;;;5.40;;
28828;SDS011;15966;51.540;11.870;2022-10-17T06:23:49;7.18;;;4.82;;
28828;SDS011;15966;51.540;11.870;2022-10-17T06:26:16;5.93;;;5.32;;
28828;SDS011;15966;51.540;11.870;2022-10-17T06:28:42;6.00;;;5.18;;
28828;SDS011;15966;51.540;11.870;2022-10-17T06:31:12;5.65;;;5.15;;
28828;SDS011;15966;51.540;11.870;2022-10-17T06:33:39;7.97;;;5.55;;
28828;SDS011;15966;51.540;11.870;2022-10-17T06:36:06;6.20;;;5.60;;
28828;SDS011;15966;51.540;11.870;2022-10-17T06:38:34;6.00;;;5.22;;
28828;SDS011;15966;51.540;11.870;2022-10-17T06:41:08;5.63;;;5.13;;
28828;SDS011;15966;51.540;11.870;2022-10-17T06:43:37;5.28;;;4.78;;
28828;SDS011;15966;51.540;11.870;2022-10-17T06:46:04;5.78;;;5.28;;
28828;SDS011;15966;51.540;11.870;2022-10-17T06:48:31;6.28;;;5.07;;
28828;SDS011;15966;51.540;11.870;2022-10-17T06:50:58;6.30;;;5.55;;
28828;SDS011;15966;51.540;11.870;2022-10-17T06:53:28;6.20;;;5.47;;
28828;SDS011;15966;51.540;11.870;2022-10-17T06:55:56;6.95;;;5.75;;
28828;SDS011;15966;51.540;11.870;2022-10-17T06:58:30;9.18;;;5.22;;
28828;SDS011;15966;51.540;11.870;2022-10-17T07:01:02;10.13;;;5.85;;
28828;SDS011;15966;51.540;11.870;2022-10-17T07:03:30;8.88;;;5.78;;
28828;SDS011;15966;51.540;11.870;2022-10-17T07:05:56;35.83;;;9.55;;
28828;SDS011;15966;51.540;11.870;2022-10-17T07:08:22;65.53;;;11.20;;
28828;SDS011;15966;51.540;11.870;2022-10-17T07:10:49;23.08;;;8.23;;
28828;SDS011;15966;51.540;11.870;2022-10-17T07:13:15;9.30;;;6.32;;
28828;SDS011;15966;51.540;11.870;2022-10-17T07:15:42;5.03;;;4.53;;
28828;SDS011;15966;51.540;11.870;2022-10-17T07:18:08;4.78;;;4.38;;
28828;SDS011;15966;51.540;11.870;2022-10-17T07:20:34;5.47;;;3.95;;
28828;SDS011;15966;51.540;11.870;2022-10-17T07:23:00;5.45;;;4.93;;
28828;SDS011;15966;51.540;11.870;2022-10-17T07:25:27;7.55;;;4.90;;
28828;SDS011;15966;51.540;11.870;2022-10-17T07:27:53;7.27;;;4.70;;
28828;SDS011;15966;51.540;11.870;2022-10-17T07:30:20;4.30;;;3.50;;
28828;SDS011;15966;51.540;11.870;2022-10-17T07:32:46;5.23;;;4.07;;
28828;SDS011;15966;51.540;11.870;2022-10-17T07:35:13;5.03;;;4.07;;
28828;SDS011;15966;51.540;11.870;2022-10-17T07:37:39;4.68;;;4.18;;
28828;SDS011;15966;51.540;11.870;2022-10-17T07:40:06;6.15;;;5.55;;
28828;SDS011;15966;51.540;11.870;2022-10-17T07:42:35;7.70;;;4.95;;
28828;SDS011;15966;51.540;11.870;2022-10-17T07:45:01;4.35;;;4.05;;
28828;SDS011;15966;51.540;11.870;2022-10-17T07:47:27;5.53;;;2.90;;
28828;SDS011;15966;51.540;11.870;2022-10-17T07:49:55;7.13;;;4.32;;
28828;SDS011;15966;51.540;11.870;2022-10-17T07:52:21;5.15;;;3.58;;
28828;SDS011;15966;51.540;11.870;2022-10-17T07:54:47;3.30;;;2.83;;
28828;SDS011;15966;51.540;11.870;2022-10-17T07:57:14;6.13;;;2.65;;
28828;SDS011;15966;51.540;11.870;2022-10-17T07:59:40;3.90;;;2.97;;
28828;SDS011;15966;51.540;11.870;2022-10-17T08:02:08;3.97;;;3.55;;
28828;SDS011;15966;51.540;11.870;2022-10-17T08:04:42;3.78;;;3.38;;
28828;SDS011;15966;51.540;11.870;2022-10-17T08:07:08;3.60;;;3.22;;
28828;SDS011;15966;51.540;11.870;2022-10-17T08:09:35;5.75;;;3.90;;
28828;SDS011;15966;51.540;11.870;2022-10-17T08:12:01;11.48;;;3.42;;
28828;SDS011;15966;51.540;11.870;2022-10-17T08:14:27;3.47;;;3.17;;
28828;SDS011;15966;51.540;11.870;2022-10-17T08:16:53;7.35;;;4.25;;
28828;SDS011;15966;51.540;11.870;2022-10-17T08:19:20;4.53;;;3.70;;
28828;SDS011;15966;51.540;11.870;2022-10-17T08:21:46;4.68;;;3.28;;
28828;SDS011;15966;51.540;11.870;2022-10-17T08:24:14;9.02;;;4.20;;
28828;SDS011;15966;51.540;11.870;2022-10-17T08:26:40;6.07;;;3.22;;
28828;SDS011;15966;51.540;11.870;2022-10-17T08:29:11;3.25;;;2.83;;
28828;SDS011;15966;51.540;11.870;2022-10-17T08:31:38;4.72;;;3.40;;
28828;SDS011;15966;51.540;11.870;2022-10-17T08:34:04;3.50;;;3.00;;
28828;SDS011;15966;51.540;11.870;2022-10-17T08:36:30;10.70;;;3.67;;
28828;SDS011;15966;51.540;11.870;2022-10-17T08:38:56;3.67;;;2.95;;
28828;SDS011;15966;51.540;11.870;2022-10-17T08:44:16;6.10;;;3.10;;
28828;SDS011;15966;51.540;11.870;2022-10-17T08:47:06;5.07;;;2.72;;
28828;SDS011;15966;51.540;11.870;2022-10-17T08:54:56;4.78;;;2.50;;
28828;SDS011;15966;51.540;11.870;2022-10-17T08:57:23;2.50;;;2.30;;
28828;SDS011;15966;51.540;11.870;2022-10-17T08:59:50;9.02;;;2.30;;
28828;SDS011;15966;51.540;11.870;2022-10-17T09:07:39;2.20;;;2.00;;
28828;SDS011;15966;51.540;11.870;2022-10-17T09:10:27;3.75;;;2.58;;
28828;SDS011;15966;51.540;11.870;2022-10-17T09:16:13;3.13;;;2.28;;
28828;SDS011;15966;51.540;11.870;2022-10-17T09:19:00;2.67;;;2.40;;
28828;SDS011;15966;51.540;11.870;2022-10-17T09:21:52;4.65;;;2.67;;
28828;SDS011;15966;51.540;11.870;2022-10-17T09:24:41;2.55;;;1.88;;
28828;SDS011;15966;51.540;11.870;2022-10-17T09:28:11;3.30;;;2.38;;
28828;SDS011;15966;51.540;11.870;2022-10-17T09:33:10;3.55;;;2.70;;
28828;SDS011;15966;51.540;11.870;2022-10-17T09:35:40;5.28;;;2.40;;
28828;SDS011;15966;51.540;11.870;2022-10-17T09:38:12;3.90;;;2.78;;
28828;SDS011;15966;51.540;11.870;2022-10-17T09:40:41;2.90;;;2.30;;
28828;SDS011;15966;51.540;11.870;2022-10-17T09:43:07;2.60;;;2.40;;
28828;SDS011;15966;51.540;11.870;2022-10-17T09:45:43;4.97;;;2.13;;
28828;SDS011;15966;51.540;11.870;2022-10-17T09:48:31;2.78;;;1.95;;
28828;SDS011;15966;51.540;11.870;2022-10-17T09:51:07;3.85;;;2.03;;
28828;SDS011;15966;51.540;11.870;2022-10-17T09:53:35;3.63;;;2.03;;
28828;SDS011;15966;51.540;11.870;2022-10-17T09:56:06;3.13;;;2.05;;
28828;SDS011;15966;51.540;11.870;2022-10-17T09:58:55;3.22;;;2.45;;
28828;SDS011;15966;51.540;11.870;2022-10-17T10:01:23;3.20;;;2.38;;
28828;SDS011;15966;51.540;11.870;2022-10-17T10:04:10;4.72;;;2.83;;
28828;SDS011;15966;51.540;11.870;2022-10-17T10:06:40;2.85;;;2.35;;
28828;SDS011;15966;51.540;11.870;2022-10-17T10:09:26;5.15;;;2.10;;
28828;SDS011;15966;51.540;11.870;2022-10-17T10:11:55;5.18;;;2.90;;
28828;SDS011;15966;51.540;11.870;2022-10-17T10:14:23;3.13;;;2.42;;
28828;SDS011;15966;51.540;11.870;2022-10-17T10:16:53;2.80;;;1.92;;
28828;SDS011;15966;51.540;11.870;2022-10-17T10:19:23;4.53;;;2.60;;
28828;SDS011;15966;51.540;11.870;2022-10-17T10:22:00;2.50;;;2.15;;
28828;SDS011;15966;51.540;11.870;2022-10-17T10:24:28;3.40;;;2.05;;
28828;SDS011;15966;51.540;11.870;2022-10-17T10:26:55;7.60;;;2.53;;
28828;SDS011;15966;51.540;11.870;2022-10-17T10:29:35;4.70;;;2.45;;
28828;SDS011;15966;51.540;11.870;2022-10-17T10:32:09;2.53;;;2.05;;
28828;SDS011;15966;51.540;11.870;2022-10-17T10:34:51;7.22;;;2.45;;
28828;SDS011;15966;51.540;11.870;2022-10-17T10:37:34;2.38;;;2.17;;
28828;SDS011;15966;51.540;11.870;2022-10-17T10:40:03;2.85;;;2.53;;
28828;SDS011;15966;51.540;11.870;2022-10-17T10:42:34;3.35;;;2.38;;
28828;SDS011;15966;51.540;11.870;2022-10-17T10:45:14;4.78;;;2.38;;
28828;SDS011;15966;51.540;11.870;2022-10-17T10:47:55;3.13;;;2.17;;
28828;SDS011;15966;51.540;11.870;2022-10-17T10:55:49;4.72;;;2.10;;
28828;SDS011;15966;51.540;11.870;2022-10-17T11:01:05;3.42;;;2.35;;
28828;SDS011;15966;51.540;11.870;2022-10-17T11:03:45;4.43;;;2.23;;
28828;SDS011;15966;51.540;11.870;2022-10-17T11:06:20;6.13;;;3.17;;
28828;SDS011;15966;51.540;11.870;2022-10-17T11:11:34;4.53;;;2.70;;
28828;SDS011;15966;51.540;11.870;2022-10-17T11:14:29;6.93;;;3.47;;
28828;SDS011;15966;51.540;11.870;2022-10-17T11:17:11;2.58;;;2.13;;
28828;SDS011;15966;51.540;11.870;2022-10-17T11:19:58;4.13;;;3.00;;
28828;SDS011;15966;51.540;11.870;2022-10-17T11:22:30;2.90;;;2.55;;
28828;SDS011;15966;51.540;11.870;2022-10-17T11:27:39;4.50;;;2.95;;
28828;SDS011;15966;51.540;11.870;2022-10-17T11:30:05;3.28;;;2.13;;
28828;SDS011;15966;51.540;11.870;2022-10-17T11:32:36;3.42;;;2.45;;
28828;SDS011;15966;51.540;11.870;2022-10-17T11:35:14;5.32;;;2.75;;
28828;SDS011;15966;51.540;11.870;2022-10-17T11:37:57;3.63;;;3.20;;
28828;SDS011;15966;51.540;11.870;2022-10-17T11:40:40;2.40;;;2.20;;
28828;SDS011;15966;51.540;11.870;2022-10-17T11:43:19;3.58;;;1.88;;
28828;SDS011;15966;51.540;11.870;2022-10-17T11:46:18;3.47;;;1.95;;
28828;SDS011;15966;51.540;11.870;2022-10-17T11:48:55;2.85;;;2.15;;
28828;SDS011;15966;51.540;11.870;2022-10-17T11:51:22;5.28;;;2.00;;
28828;SDS011;15966;51.540;11.870;2022-10-17T11:53:56;2.10;;;1.77;;
28828;SDS011;15966;51.540;11.870;2022-10-17T11:56:44;2.00;;;1.77;;
28828;SDS011;15966;51.540;11.870;2022-10-17T12:02:22;2.60;;;1.40;;
28828;SDS011;15966;51.540;11.870;2022-10-17T12:04:58;4.97;;;1.83;;
28828;SDS011;15966;51.540;11.870;2022-10-17T12:07:32;5.28;;;2.00;;
28828;SDS011;15966;51.540;11.870;2022-10-17T12:10:17;3.20;;;1.92;;
28828;SDS011;15966;51.540;11.870;2022-10-17T12:13:37;2.95;;;1.80;;
28828;SDS011;15966;51.540;11.870;2022-10-17T12:15:55;4.90;;;1.42;;
28828;SDS011;15966;51.540;11.870;2022-10-17T12:18:23;3.72;;;2.15;;
28828;SDS011;15966;51.540;11.870;2022-10-17T12:20:56;3.35;;;1.92;;
28828;SDS011;15966;51.540;11.870;2022-10-17T12:23:27;6.25;;;2.05;;
28828;SDS011;15966;51.540;11.870;2022-10-17T12:26:01;2.25;;;1.73;;
28828;SDS011;15966;51.540;11.870;2022-10-17T12:28:29;4.55;;;1.85;;
28828;SDS011;15966;51.540;11.870;2022-10-17T12:31:03;6.65;;;1.48;;
28828;SDS011;15966;51.540;11.870;2022-10-17T12:38:50;2.25;;;1.40;;
28828;SDS011;15966;51.540;11.870;2022-10-17T12:44:49;3.00;;;1.42;;
28828;SDS011;15966;51.540;11.870;2022-10-17T12:54:55;4.00;;;1.65;;
28828;SDS011;15966;51.540;11.870;2022-10-17T13:03:00;2.60;;;1.42;;
28828;SDS011;15966;51.540;11.870;2022-10-17T13:05:37;7.75;;;2.58;;
28828;SDS011;15966;51.540;11.870;2022-10-17T13:08:06;8.95;;;2.30;;
28828;SDS011;15966;51.540;11.870;2022-10-17T13:10:38;5.97;;;2.20;;
28828;SDS011;15966;51.540;11.870;2022-10-17T13:13:06;3.25;;;1.50;;
28828;SDS011;15966;51.540;11.870;2022-10-17T13:18:20;3.00;;;1.70;;
28828;SDS011;15966;51.540;11.870;2022-10-17T13:20:54;4.93;;;1.30;;
28828;SDS011;15966;51.540;11.870;2022-10-17T13:23:34;2.10;;;1.42;;
28828;SDS011;15966;51.540;11.870;2022-10-17T13:31:33;3.97;;;1.80;;
28828;SDS011;15966;51.540;11.870;2022-10-17T13:34:02;14.30;;;2.78;;
28828;SDS011;15966;51.540;11.870;2022-10-17T13:36:29;12.93;;;2.70;;
28828;SDS011;15966;51.540;11.870;2022-10-17T13:39:04;2.78;;;1.92;;
28828;SDS011;15966;51.540;11.870;2022-10-17T13:41:32;5.05;;;2.08;;
28828;SDS011;15966;51.540;11.870;2022-10-17T13:43:59;16.38;;;3.30;;
28828;SDS011;15966;51.540;11.870;2022-10-17T13:46:29;13.00;;;3.45;;
28828;SDS011;15966;51.540;11.870;2022-10-17T13:48:57;3.80;;;1.67;;
28828;SDS011;15966;51.540;11.870;2022-10-17T13:53:50;3.85;;;1.80;;
28828;SDS011;15966;51.540;11.870;2022-10-17T13:58:46;5.63;;;1.67;;
28828;SDS011;15966;51.540;11.870;2022-10-17T14:01:14;8.60;;;1.95;;
28828;SDS011;15966;51.540;11.870;2022-10-17T14:03:41;6.72;;;2.25;;
28828;SDS011;15966;51.540;11.870;2022-10-17T14:11:31;2.45;;;2.00;;
28828;SDS011;15966;51.540;11.870;2022-10-17T14:14:03;5.63;;;1.48;;
28828;SDS011;15966;51.540;11.870;2022-10-17T14:16:36;2.95;;;1.70;;
28828;SDS011;15966;51.540;11.870;2022-10-17T14:19:04;4.10;;;1.98;;
28828;SDS011;15966;51.540;11.870;2022-10-17T14:21:46;11.55;;;2.30;;
28828;SDS011;15966;51.540;11.870;2022-10-17T14:24:34;12.18;;;3.28;;
28828;SDS011;15966;51.540;11.870;2022-10-17T14:26:59;22.42;;;4.05;;
28828;SDS011;15966;51.540;11.870;2022-10-17T14:29:29;3.45;;;1.70;;
28828;SDS011;15966;51.540;11.870;2022-10-17T14:32:13;6.88;;;2.30;;
28828;SDS011;15966;51.540;11.870;2022-10-17T14:34:40;7.82;;;2.05;;
28828;SDS011;15966;51.540;11.870;2022-10-17T14:40:02;10.07;;;2.70;;
28828;SDS011;15966;51.540;11.870;2022-10-17T14:42:29;4.43;;;1.75;;
28828;SDS011;15966;51.540;11.870;2022-10-17T14:44:58;8.30;;;2.03;;
28828;SDS011;15966;51.540;11.870;2022-10-17T14:47:32;2.97;;;1.70;;
28828;SDS011;15966;51.540;11.870;2022-10-17T14:50:06;5.75;;;2.08;;
28828;SDS011;15966;51.540;11.870;2022-10-17T14:52:35;3.15;;;2.38;;
28828;SDS011;15966;51.540;11.870;2022-10-17T14:55:22;6.03;;;2.33;;
28828;SDS011;15966;51.540;11.870;2022-10-17T14:57:50;7.68;;;2.28;;
28828;SDS011;15966;51.540;11.870;2022-10-17T15:00:17;6.05;;;2.30;;
28828;SDS011;15966;51.540;11.870;2022-10-17T15:02:44;4.63;;;2.20;;
28828;SDS011;15966;51.540;11.870;2022-10-17T15:05:11;4.18;;;1.80;;
28828;SDS011;15966;51.540;11.870;2022-10-17T15:07:37;4.22;;;2.13;;
28828;SDS011;15966;51.540;11.870;2022-10-17T15:10:04;2.45;;;1.67;;
28828;SDS011;15966;51.540;11.870;2022-10-17T15:12:30;5.45;;;2.00;;
28828;SDS011;15966;51.540;11.870;2022-10-17T15:14:56;2.15;;;1.73;;
28828;SDS011;15966;51.540;11.870;2022-10-17T15:17:24;6.30;;;2.17;;
28828;SDS011;15966;51.540;11.870;2022-10-17T15:19:52;2.58;;;1.63;;
28828;SDS011;15966;51.540;11.870;2022-10-17T15:22:18;4.50;;;2.25;;
28828;SDS011;15966;51.540;11.870;2022-10-17T15:24:45;2.67;;;1.80;;
28828;SDS011;15966;51.540;11.870;2022-10-17T15:27:21;5.57;;;1.57;;
28828;SDS011;15966;51.540;11.870;2022-10-17T15:29:49;6.03;;;2.15;;
28828;SDS011;15966;51.540;11.870;2022-10-17T15:32:15;1.85;;;1.45;;
28828;SDS011;15966;51.540;11.870;2022-10-17T15:34:42;8.50;;;2.20;;
28828;SDS011;15966;51.540;11.870;2022-10-17T15:37:19;5.40;;;2.33;;
28828;SDS011;15966;51.540;11.870;2022-10-17T15:39:48;5.03;;;1.45;;
28828;SDS011;15966;51.540;11.870;2022-10-17T15:42:18;6.57;;;1.80;;
28828;SDS011;15966;51.540;11.870;2022-10-17T15:44:52;3.85;;;1.50;;
28828;SDS011;15966;51.540;11.870;2022-10-17T15:47:21;2.07;;;1.13;;
28828;SDS011;15966;51.540;11.870;2022-10-17T15:49:48;4.97;;;2.13;;
28828;SDS011;15966;51.540;11.870;2022-10-17T15:52:14;3.28;;;1.30;;
28828;SDS011;15966;51.540;11.870;2022-10-17T15:54:40;4.72;;;1.75;;
28828;SDS011;15966;51.540;11.870;2022-10-17T15:57:07;1.88;;;1.65;;
28828;SDS011;15966;51.540;11.870;2022-10-17T15:59:50;1.83;;;1.30;;
28828;SDS011;15966;51.540;11.870;2022-10-17T16:02:17;6.15;;;2.50;;
28828;SDS011;15966;51.540;11.870;2022-10-17T16:04:44;1.42;;;1.17;;
28828;SDS011;15966;51.540;11.870;2022-10-17T16:07:11;3.55;;;1.67;;
28828;SDS011;15966;51.540;11.870;2022-10-17T16:09:37;2.25;;;1.60;;
28828;SDS011;15966;51.540;11.870;2022-10-17T16:12:04;2.17;;;1.55;;
28828;SDS011;15966;51.540;11.870;2022-10-17T16:14:33;4.95;;;1.85;;
28828;SDS011;15966;51.540;11.870;2022-10-17T16:16:59;3.50;;;1.90;;
28828;SDS011;15966;51.540;11.870;2022-10-17T16:19:25;1.80;;;1.23;;
28828;SDS011;15966;51.540;11.870;2022-10-17T16:21:54;1.90;;;1.60;;
28828;SDS011;15966;51.540;11.870;2022-10-17T16:24:21;1.77;;;1.67;;
28828;SDS011;15966;51.540;11.870;2022-10-17T16:26:48;3.67;;;1.63;;
28828;SDS011;15966;51.540;11.870;2022-10-17T16:29:15;4.47;;;1.55;;
28828;SDS011;15966;51.540;11.870;2022-10-17T16:31:42;4.30;;;1.95;;
28828;SDS011;15966;51.540;11.870;2022-10-17T16:34:09;6.10;;;1.85;;
28828;SDS011;15966;51.540;11.870;2022-10-17T16:36:37;3.88;;;2.30;;
28828;SDS011;15966;51.540;11.870;2022-10-17T16:39:06;2.75;;;1.45;;
28828;SDS011;15966;51.540;11.870;2022-10-17T16:41:36;4.82;;;1.85;;
28828;SDS011;15966;51.540;11.870;2022-10-17T16:44:04;1.98;;;1.42;;
28828;SDS011;15966;51.540;11.870;2022-10-17T16:46:32;7.28;;;1.90;;
28828;SDS011;15966;51.540;11.870;2022-10-17T16:48:59;1.73;;;1.63;;
28828;SDS011;15966;51.540;11.870;2022-10-17T16:51:27;3.80;;;1.85;;